Time;durP1;ratioP1;P1;durP2;ratioP2;P2;SDS_P1;SDS_P2;PMS_P1;PMS_P2;Temp;Humidity;BMP_temperature;BMP_pressure;BME280_temperature;BME280_humidity;BME280_pressure;Samples;Min_cycle;Max_cycle;Signal;HPM_P1;HPM_P2
2021/10/29 00:01:12;;;;;;;21.50;11.77;;;13.60;86.30;;;;;;5079056;28;20141;-78
2021/10/29 00:03:38;;;;;;;24.23;12.70;;;13.60;86.40;;;;;;5090637;28;20025;-77
2021/10/29 00:06:04;;;;;;;23.05;11.80;;;13.60;86.40;;;;;;5078802;28;20112;-78
2021/10/29 00:08:31;;;;;;;17.75;11.73;;;13.70;86.10;;;;;;5078432;28;20036;-77
2021/10/29 00:10:57;;;;;;;22.50;12.13;;;13.70;86.10;;;;;;5078358;28;20063;-77
2021/10/29 00:13:22;;;;;;;22.45;11.85;;;13.70;86.00;;;;;;5078179;28;20021;-77
2021/10/29 00:15:48;;;;;;;20.67;12.07;;;13.70;85.90;;;;;;5078638;28;20107;-78
2021/10/29 00:18:15;;;;;;;17.08;10.75;;;13.70;85.70;;;;;;5078111;28;20028;-77
2021/10/29 00:20:41;;;;;;;19.42;11.50;;;13.70;85.60;;;;;;5077880;28;20020;-77
2021/10/29 00:23:07;;;;;;;23.63;11.50;;;13.80;85.60;;;;;;5078171;28;20443;-77
2021/10/29 00:25:32;;;;;;;19.25;12.30;;;13.80;85.80;;;;;;5078101;28;20025;-77
2021/10/29 00:27:58;;;;;;;19.13;11.73;;;13.80;85.80;;;;;;5078084;28;20414;-77
2021/10/29 00:30:24;;;;;;;20.83;11.77;;;13.80;85.70;;;;;;5078252;28;20020;-77
2021/10/29 00:32:50;;;;;;;20.55;11.90;;;13.80;85.60;;;;;;5084897;28;20029;-77
2021/10/29 00:35:16;;;;;;;17.83;11.60;;;13.80;85.80;;;;;;5078520;28;20687;-76
2021/10/29 00:37:42;;;;;;;20.40;12.23;;;13.80;85.70;;;;;;5077813;28;20101;-76
2021/10/29 00:40:12;;;;;;;23.50;12.77;;;13.80;85.80;;;;;;5077892;28;20111;-76
2021/10/29 00:42:39;;;;;;;16.83;11.15;;;13.80;85.80;;;;;;5077562;28;20147;-76
2021/10/29 00:45:06;;;;;;;23.27;13.10;;;13.80;86.00;;;;;;5076699;28;20043;-76
2021/10/29 00:47:32;;;;;;;28.73;13.43;;;13.80;86.00;;;;;;5076525;28;20505;-76
2021/10/29 00:49:58;;;;;;;19.23;12.05;;;13.80;86.00;;;;;;5078062;28;20479;-76
2021/10/29 00:52:24;;;;;;;21.98;12.68;;;13.80;86.00;;;;;;5077676;28;20029;-76
2021/10/29 00:54:50;;;;;;;19.08;12.18;;;13.80;85.90;;;;;;5077843;28;20383;-76
2021/10/29 00:57:16;;;;;;;19.88;11.48;;;13.80;86.10;;;;;;5077565;28;20033;-76
2021/10/29 00:59:43;;;;;;;19.00;12.32;;;13.80;86.30;;;;;;5077435;28;20027;-75
2021/10/29 01:02:09;;;;;;;20.42;12.13;;;13.80;86.30;;;;;;5080311;28;20035;-76
2021/10/29 01:04:34;;;;;;;20.90;12.55;;;13.70;86.10;;;;;;5087194;28;20020;-76
2021/10/29 01:07:00;;;;;;;22.08;12.65;;;13.70;86.10;;;;;;5076206;28;20601;-76
2021/10/29 01:09:26;;;;;;;22.90;12.73;;;13.70;86.20;;;;;;5077482;28;20026;-77
2021/10/29 01:11:52;;;;;;;25.48;12.20;;;13.70;86.40;;;;;;5077757;28;20059;-76
2021/10/29 01:14:18;;;;;;;22.42;13.88;;;13.70;86.60;;;;;;5077211;28;20031;-76
2021/10/29 01:16:44;;;;;;;24.42;13.13;;;13.70;87.00;;;;;;5077592;28;20025;-76
2021/10/29 01:19:10;;;;;;;27.10;12.77;;;13.70;86.90;;;;;;5077652;28;20070;-76
2021/10/29 01:21:37;;;;;;;19.40;13.07;;;13.70;86.80;;;;;;5077381;28;20031;-76
2021/10/29 01:24:03;;;;;;;22.17;12.43;;;13.70;86.90;;;;;;5077359;28;20443;-76
2021/10/29 01:26:29;;;;;;;22.15;12.50;;;13.70;86.90;;;;;;5077314;28;20399;-76
2021/10/29 01:28:57;;;;;;;21.65;12.98;;;13.70;86.90;;;;;;5077334;28;20792;-75
2021/10/29 01:31:23;;;;;;;21.55;12.95;;;13.70;86.80;;;;;;5077138;28;20029;-76
2021/10/29 01:33:49;;;;;;;23.58;12.75;;;13.70;86.70;;;;;;5084837;28;20020;-76
2021/10/29 01:36:15;;;;;;;24.23;13.10;;;13.70;87.10;;;;;;5077207;28;20034;-76
2021/10/29 01:38:44;;;;;;;22.63;12.90;;;13.70;87.20;;;;;;5077061;28;20072;-76
2021/10/29 01:41:11;;;;;;;22.75;13.32;;;13.70;87.40;;;;;;5077127;28;20032;-76
2021/10/29 01:43:46;;;;;;;18.60;12.65;;;13.70;87.70;;;;;;5077066;28;20028;-76
2021/10/29 01:46:13;;;;;;;20.70;13.18;;;13.60;87.60;;;;;;5077138;28;20025;-76
2021/10/29 01:48:43;;;;;;;20.52;12.43;;;13.60;87.70;;;;;;5077427;28;20025;-75
2021/10/29 01:51:09;;;;;;;18.98;12.45;;;13.60;87.70;;;;;;5077342;28;20029;-75
2021/10/29 01:53:35;;;;;;;20.73;13.25;;;13.60;87.60;;;;;;5077168;28;20111;-75
2021/10/29 01:56:01;;;;;;;21.35;12.02;;;13.60;87.40;;;;;;5075775;28;20032;-75
2021/10/29 01:58:27;;;;;;;19.88;12.95;;;13.60;87.50;;;;;;5076656;28;20031;-75
2021/10/29 02:00:53;;;;;;;17.42;11.80;;;13.60;87.40;;;;;;5077109;28;20120;-75
2021/10/29 02:03:19;;;;;;;18.58;11.05;;;13.60;88.10;;;;;;5089230;28;20017;-76
2021/10/29 02:05:45;;;;;;;20.95;11.35;;;13.60;87.30;;;;;;5077317;28;20078;-76
2021/10/29 02:08:11;;;;;;;19.25;11.18;;;13.60;87.30;;;;;;5076959;28;20021;-75
2021/10/29 02:10:37;;;;;;;24.52;11.63;;;13.60;87.90;;;;;;5076843;28;20032;-76
2021/10/29 02:13:04;;;;;;;17.98;10.85;;;13.60;87.90;;;;;;5076622;28;20067;-75
2021/10/29 02:15:29;;;;;;;19.55;10.73;;;13.60;88.50;;;;;;5077117;28;20048;-76
2021/10/29 02:17:55;;;;;;;17.00;11.05;;;13.60;88.30;;;;;;5076738;28;20486;-75
2021/10/29 02:20:21;;;;;;;18.92;11.48;;;13.60;88.30;;;;;;5077328;28;20052;-75
2021/10/29 02:22:47;;;;;;;15.48;10.30;;;13.60;88.50;;;;;;5076759;28;20070;-75
2021/10/29 02:25:13;;;;;;;20.10;10.50;;;13.60;88.30;;;;;;5076883;28;20035;-76
2021/10/29 02:27:40;;;;;;;16.10;10.32;;;13.60;88.50;;;;;;5076614;28;20387;-75
2021/10/29 02:30:06;;;;;;;23.20;11.90;;;13.60;88.60;;;;;;5077203;28;20028;-76
2021/10/29 02:32:32;;;;;;;20.60;10.43;;;13.70;88.90;;;;;;5084205;28;20023;-75
2021/10/29 02:34:58;;;;;;;16.75;9.80;;;13.70;89.20;;;;;;5076865;28;20025;-76
2021/10/29 02:37:24;;;;;;;18.10;10.68;;;13.70;88.90;;;;;;5076772;28;20504;-76
2021/10/29 02:39:51;;;;;;;20.70;10.98;;;13.70;89.60;;;;;;5076534;28;20108;-76
2021/10/29 02:42:17;;;;;;;18.80;10.65;;;13.80;89.70;;;;;;5077208;28;20026;-76
2021/10/29 02:44:43;;;;;;;18.33;10.00;;;13.80;89.40;;;;;;5080101;28;20604;-76
2021/10/29 02:47:10;;;;;;;20.15;11.38;;;13.80;89.80;;;;;;5080293;28;20021;-75
2021/10/29 02:49:36;;;;;;;19.05;10.93;;;13.80;89.80;;;;;;5087393;28;20048;-76
2021/10/29 02:52:02;;;;;;;18.35;10.13;;;13.80;89.30;;;;;;5098963;28;20028;-76
2021/10/29 02:54:28;;;;;;;17.35;10.23;;;13.80;89.90;;;;;;5100584;28;20517;-75
2021/10/29 02:56:54;;;;;;;21.85;10.68;;;13.90;90.10;;;;;;5098949;28;20114;-75
2021/10/29 02:59:20;;;;;;;18.00;10.95;;;13.90;89.70;;;;;;5100049;28;20046;-75
2021/10/29 03:01:45;;;;;;;17.10;10.07;;;13.90;89.90;;;;;;5099309;28;20021;-74
2021/10/29 03:04:11;;;;;;;20.55;10.35;;;13.90;89.90;;;;;;5091978;28;20025;-75
2021/10/29 03:06:37;;;;;;;16.67;10.02;;;13.90;89.90;;;;;;5079771;28;20028;-75
2021/10/29 03:09:03;;;;;;;17.02;10.98;;;13.90;89.80;;;;;;5079770;28;20480;-75
2021/10/29 03:11:29;;;;;;;20.27;10.07;;;13.90;89.70;;;;;;5079886;28;20390;-75
2021/10/29 03:13:55;;;;;;;17.33;10.55;;;13.90;89.50;;;;;;5079576;28;20107;-75
2021/10/29 03:16:21;;;;;;;16.63;10.43;;;13.90;89.40;;;;;;5079926;28;20055;-75
2021/10/29 03:18:47;;;;;;;20.92;11.07;;;13.90;89.60;;;;;;5079888;28;20103;-75
2021/10/29 03:21:12;;;;;;;21.10;10.77;;;13.90;89.80;;;;;;5079544;28;20016;-75
2021/10/29 03:23:39;;;;;;;19.40;10.93;;;13.90;90.00;;;;;;5079482;28;20029;-75
2021/10/29 03:26:04;;;;;;;19.45;10.40;;;13.90;89.60;;;;;;5079296;28;20024;-75
2021/10/29 03:28:30;;;;;;;18.02;11.00;;;13.90;90.10;;;;;;5079426;28;20403;-76
2021/10/29 03:30:56;;;;;;;22.95;10.48;;;13.90;90.00;;;;;;5079481;28;20025;-75
2021/10/29 03:33:22;;;;;;;19.85;10.52;;;13.90;90.30;;;;;;5085685;28;20029;-75
2021/10/29 03:35:48;;;;;;;29.20;11.45;;;13.90;90.20;;;;;;5079168;28;20031;-75
2021/10/29 03:38:37;;;;;;;17.13;10.38;;;13.90;90.10;;;;;;5079242;28;20420;-75
2021/10/29 03:41:01;;;;;;;19.10;10.85;;;14.00;90.30;;;;;;5078933;28;20098;-75
2021/10/29 03:43:31;;;;;;;19.95;10.48;;;14.00;90.30;;;;;;5079058;28;20379;-75
2021/10/29 03:51:05;;;;;;;17.88;10.45;;;14.00;90.50;;;;;;5078948;28;20070;-75
2021/10/29 03:55:58;;;;;;;22.23;11.13;;;14.00;91.10;;;;;;5078418;28;20035;-75
2021/10/29 03:58:24;;;;;;;22.05;10.60;;;14.00;91.00;;;;;;5078382;28;20478;-75
2021/10/29 04:00:50;;;;;;;17.23;10.40;;;14.00;91.10;;;;;;5079115;28;20020;-75
2021/10/29 04:03:16;;;;;;;21.05;10.57;;;14.00;91.30;;;;;;5091105;28;20054;-75
2021/10/29 04:05:42;;;;;;;24.75;11.60;;;14.00;91.50;;;;;;5078845;28;20016;-75
2021/10/29 04:08:09;;;;;;;21.95;10.65;;;14.00;92.00;;;;;;5078745;28;20039;-75
2021/10/29 04:10:40;;;;;;;21.75;11.20;;;14.00;92.00;;;;;;5078701;28;20017;-75
2021/10/29 04:13:09;;;;;;;20.00;9.45;;;14.00;92.10;;;;;;5078290;28;20024;-75
2021/10/29 04:15:37;;;;;;;24.42;10.02;;;14.00;92.10;;;;;;5078738;28;20082;-75
2021/10/29 04:18:03;;;;;;;21.75;10.35;;;14.00;92.00;;;;;;5078226;28;20031;-75
2021/10/29 04:20:29;;;;;;;20.80;11.07;;;14.00;91.90;;;;;;5078522;28;20016;-75
2021/10/29 04:22:55;;;;;;;21.00;10.15;;;14.00;92.30;;;;;;5078168;28;20025;-75
2021/10/29 04:25:21;;;;;;;23.42;10.95;;;14.00;92.30;;;;;;5078216;28;20078;-76
2021/10/29 04:28:04;;;;;;;22.00;10.20;;;14.00;92.40;;;;;;5078027;28;20028;-75
2021/10/29 04:30:31;;;;;;;20.83;10.30;;;14.00;92.20;;;;;;5076929;28;20035;-75
2021/10/29 04:32:58;;;;;;;22.88;10.50;;;14.00;92.20;;;;;;5084885;28;20081;-76
2021/10/29 04:35:25;;;;;;;19.80;10.43;;;14.00;92.30;;;;;;5078586;28;20055;-75
2021/10/29 04:37:52;;;;;;;20.30;9.98;;;14.00;92.40;;;;;;5077741;28;20090;-75
2021/10/29 04:40:18;;;;;;;18.98;9.65;;;14.10;92.40;;;;;;5078202;28;20107;-75
2021/10/29 04:42:44;;;;;;;23.42;10.65;;;14.00;92.20;;;;;;5077601;28;20074;-76
2021/10/29 04:45:10;;;;;;;22.13;10.02;;;14.00;92.00;;;;;;5078026;28;20391;-75
2021/10/29 04:47:36;;;;;;;22.20;9.93;;;14.10;92.30;;;;;;5077792;28;20386;-75
2021/10/29 04:50:04;;;;;;;22.95;11.20;;;14.10;92.20;;;;;;5077897;28;20024;-75
2021/10/29 04:52:29;;;;;;;24.45;10.93;;;14.10;91.90;;;;;;5077740;28;20017;-75
2021/10/29 04:54:56;;;;;;;23.77;10.40;;;14.10;92.00;;;;;;5077721;28;20029;-75
2021/10/29 04:57:22;;;;;;;19.38;9.32;;;14.10;92.10;;;;;;5077533;28;20483;-75
2021/10/29 04:59:48;;;;;;;22.20;9.43;;;14.10;92.20;;;;;;5078014;28;20036;-75
2021/10/29 05:02:14;;;;;;;16.77;9.50;;;14.20;93.20;;;;;;5081107;28;20019;-75
2021/10/29 05:04:41;;;;;;;15.00;8.40;;;14.20;93.20;;;;;;5086151;28;20028;-75
2021/10/29 05:07:06;;;;;;;15.25;6.60;;;14.10;92.70;;;;;;5077377;28;20020;-75
2021/10/29 05:09:32;;;;;;;16.35;5.95;;;14.10;92.60;;;;;;5077596;28;20032;-75
2021/10/29 05:11:58;;;;;;;9.10;4.10;;;14.10;92.30;;;;;;5077368;28;20514;-75
2021/10/29 05:14:24;;;;;;;11.45;3.67;;;14.00;91.80;;;;;;5077347;28;20056;-75
2021/10/29 05:16:50;;;;;;;11.88;4.25;;;14.00;91.50;;;;;;5077414;28;20028;-75
2021/10/29 05:19:17;;;;;;;8.18;4.22;;;14.00;91.40;;;;;;5077556;28;20082;-75
2021/10/29 05:21:43;;;;;;;11.90;3.85;;;13.90;91.40;;;;;;5077502;28;20047;-75
2021/10/29 05:24:09;;;;;;;11.40;3.80;;;13.90;91.30;;;;;;5077378;28;20099;-75
2021/10/29 05:26:37;;;;;;;7.50;2.85;;;13.90;91.10;;;;;;5077313;28;20048;-75
2021/10/29 05:29:03;;;;;;;9.55;2.90;;;13.90;91.10;;;;;;5077090;28;20402;-75
2021/10/29 05:31:30;;;;;;;8.40;2.65;;;13.80;90.90;;;;;;5075992;28;20108;-76
2021/10/29 05:33:56;;;;;;;9.38;2.78;;;13.80;90.90;;;;;;5084218;28;20028;-75
2021/10/29 05:36:22;;;;;;;8.27;1.88;;;13.80;90.90;;;;;;5077212;28;20032;-75
2021/10/29 05:38:48;;;;;;;4.95;2.03;;;13.80;90.80;;;;;;5076954;28;20047;-76
2021/10/29 05:41:14;;;;;;;4.78;2.33;;;13.70;90.90;;;;;;5077215;28;20100;-75
2021/10/29 05:43:39;;;;;;;7.75;2.03;;;13.70;90.80;;;;;;5077039;28;20032;-75
2021/10/29 05:46:05;;;;;;;8.15;2.08;;;13.60;90.60;;;;;;5077143;28;20391;-75
2021/10/29 05:48:31;;;;;;;9.50;1.83;;;13.60;90.70;;;;;;5077221;28;20024;-76
2021/10/29 05:50:58;;;;;;;6.82;1.80;;;13.50;90.80;;;;;;5077129;28;20077;-75
2021/10/29 05:55:56;;;;;;;11.27;2.80;;;13.40;90.60;;;;;;5077017;28;20111;-75
2021/10/29 05:58:22;;;;;;;9.43;2.10;;;13.30;90.90;;;;;;5076802;28;20032;-75
2021/10/29 06:00:48;;;;;;;7.82;1.80;;;13.30;91.00;;;;;;5076986;28;20020;-75
2021/10/29 06:03:14;;;;;;;10.07;2.35;;;13.20;91.30;;;;;;5088903;28;20016;-75
2021/10/29 06:05:40;;;;;;;9.05;1.90;;;13.20;91.20;;;;;;5077165;28;20032;-75
2021/10/29 06:08:06;;;;;;;12.10;2.53;;;13.10;91.20;;;;;;5077311;28;20063;-76
2021/10/29 06:10:32;;;;;;;17.00;2.78;;;13.10;91.30;;;;;;5076946;28;20082;-75
2021/10/29 06:12:57;;;;;;;9.25;1.98;;;13.10;91.30;;;;;;5076858;28;20029;-75
2021/10/29 06:15:24;;;;;;;8.13;2.20;;;13.10;91.30;;;;;;5077037;28;20070;-75
2021/10/29 06:17:51;;;;;;;12.32;1.83;;;13.10;91.50;;;;;;5078393;28;20525;-75
2021/10/29 06:20:17;;;;;;;6.75;1.83;;;13.00;91.40;;;;;;5080774;28;20059;-76
2021/10/29 06:22:49;;;;;;;12.70;2.70;;;13.10;91.40;;;;;;5080673;28;20379;-76
2021/10/29 06:25:20;;;;;;;15.02;2.00;;;13.00;91.60;;;;;;5087707;28;20471;-75
2021/10/29 06:30:36;;;;;;;13.15;2.60;;;13.00;91.40;;;;;;5100842;28;20111;-75
2021/10/29 06:33:02;;;;;;;10.50;2.03;;;13.00;91.50;;;;;;5095925;28;20099;-75
2021/10/29 06:35:29;;;;;;;11.55;2.33;;;12.90;91.40;;;;;;5080694;28;20057;-75
2021/10/29 06:37:58;;;;;;;16.02;2.88;;;12.90;91.50;;;;;;5080131;28;20044;-75
2021/10/29 06:40:25;;;;;;;12.82;3.17;;;12.90;91.50;;;;;;5080293;28;20039;-75
2021/10/29 06:42:55;;;;;;;12.30;2.47;;;12.80;91.50;;;;;;5079946;28;20387;-75
2021/10/29 06:45:41;;;;;;;12.85;2.60;;;12.80;91.50;;;;;;5080496;28;20056;-75
2021/10/29 07:01:49;;;;;;;7.45;2.13;;;12.80;91.70;;;;;;5079891;28;20032;-75
2021/10/29 07:42:04;;;;;;;17.65;3.13;;;12.90;91.80;;;;;;5099445;28;20576;-75
2021/10/29 07:44:31;;;;;;;14.02;2.42;;;13.00;91.70;;;;;;5099242;28;20032;-75
2021/10/29 07:46:57;;;;;;;12.00;2.33;;;13.00;91.60;;;;;;5099527;28;20024;-74
2021/10/29 07:49:28;;;;;;;17.45;2.80;;;13.10;92.00;;;;;;5099352;28;20034;-75
2021/10/29 07:51:57;;;;;;;19.88;3.83;;;13.20;91.80;;;;;;5099164;28;20028;-75
2021/10/29 07:54:25;;;;;;;18.73;2.83;;;13.30;91.70;;;;;;5099213;28;20024;-75
2021/10/29 07:56:51;;;;;;;14.50;2.33;;;13.40;91.60;;;;;;5099062;28;20367;-75
2021/10/29 07:59:19;;;;;;;12.98;2.85;;;13.40;91.30;;;;;;5098904;28;20032;-75
2021/10/29 08:01:45;;;;;;;14.23;2.60;;;13.40;91.20;;;;;;5098125;28;20368;-75
2021/10/29 08:04:11;;;;;;;15.35;2.13;;;13.50;91.40;;;;;;5091237;28;20029;-75
2021/10/29 08:06:37;;;;;;;16.10;2.75;;;13.50;91.10;;;;;;5078749;28;20032;-75
2021/10/29 08:09:04;;;;;;;16.77;2.30;;;13.60;91.00;;;;;;5078850;28;20035;-75
2021/10/29 08:11:30;;;;;;;13.27;2.78;;;13.60;91.10;;;;;;5078486;28;20426;-75
2021/10/29 08:13:55;;;;;;;17.67;2.45;;;13.70;90.90;;;;;;5078608;28;20031;-75
2021/10/29 08:16:23;;;;;;;18.08;2.63;;;13.70;90.90;;;;;;5077131;28;20380;-75
2021/10/29 08:18:48;;;;;;;13.80;2.00;;;13.70;90.70;;;;;;5077105;28;20024;-75
2021/10/29 08:21:14;;;;;;;10.05;2.05;;;13.80;90.60;;;;;;5078602;28;20074;-75
2021/10/29 08:23:43;;;;;;;11.68;2.20;;;13.90;90.60;;;;;;5078542;28;20028;-75
2021/10/29 08:26:11;;;;;;;11.85;2.00;;;14.00;90.40;;;;;;5078303;28;20023;-75
2021/10/29 08:28:39;;;;;;;13.23;2.25;;;14.00;90.30;;;;;;5077968;28;20094;-75
2021/10/29 08:31:05;;;;;;;12.50;1.80;;;14.20;90.10;;;;;;5078170;28;20021;-75
2021/10/29 08:33:31;;;;;;;15.70;2.17;;;14.30;90.00;;;;;;5085317;28;20475;-75
2021/10/29 08:35:57;;;;;;;11.90;1.70;;;14.40;89.10;;;;;;5078066;28;20107;-76
2021/10/29 08:38:24;;;;;;;12.25;2.67;;;14.50;88.50;;;;;;5076564;28;20106;-75
2021/10/29 08:40:51;;;;;;;11.45;2.33;;;14.50;88.10;;;;;;5077302;28;20047;-75
2021/10/29 08:43:17;;;;;;;14.45;2.38;;;14.60;87.70;;;;;;5076495;28;20024;-75
2021/10/29 08:45:44;;;;;;;9.00;1.40;;;14.60;87.40;;;;;;5078090;28;20020;-75
2021/10/29 08:48:11;;;;;;;9.80;1.52;;;14.60;87.00;;;;;;5078220;28;20021;-75
2021/10/29 08:50:37;;;;;;;10.75;2.28;;;14.60;87.00;;;;;;5077785;28;20013;-75
2021/10/29 08:53:03;;;;;;;9.30;1.50;;;14.60;86.30;;;;;;5077964;28;20025;-75
2021/10/29 08:55:32;;;;;;;16.63;2.22;;;14.60;86.00;;;;;;5077853;28;20463;-75
2021/10/29 08:58:01;;;;;;;15.52;2.33;;;14.60;85.80;;;;;;5077602;28;20494;-75
2021/10/29 09:00:30;;;;;;;16.20;2.75;;;14.70;85.20;;;;;;5077632;28;20031;-75
2021/10/29 09:03:05;;;;;;;9.55;2.13;;;14.70;86.00;;;;;;5087144;28;20069;-75
2021/10/29 09:33:57;;;;;;;13.52;3.17;;;15.20;84.70;;;;;;5086111;28;20028;-76
2021/10/29 09:36:28;;;;;;;11.98;2.17;;;15.30;85.10;;;;;;5077309;28;20024;-75
2021/10/29 09:39:15;;;;;;;8.10;1.27;;;15.50;85.00;;;;;;5076953;28;20053;-75
2021/10/29 09:41:42;;;;;;;10.82;1.42;;;15.70;85.20;;;;;;5076926;28;20032;-75
2021/10/29 09:44:15;;;;;;;8.48;1.65;;;16.20;85.10;;;;;;5076952;28;20035;-75
2021/10/29 09:46:59;;;;;;;10.13;2.38;;;16.80;84.20;;;;;;5077677;28;20028;-76
2021/10/29 09:49:32;;;;;;;10.93;2.45;;;17.50;83.90;;;;;;5077130;28;20082;-75
2021/10/29 09:57:25;;;;;;;8.45;1.20;;;19.60;77.30;;;;;;5101362;28;20031;-75
2021/10/29 09:59:52;;;;;;;8.95;1.90;;;19.90;74.90;;;;;;5099975;28;20064;-75
2021/10/29 10:02:23;;;;;;;12.60;1.48;;;20.40;75.50;;;;;;5099817;28;20027;-75
2021/10/29 10:04:50;;;;;;;6.40;2.00;;;20.70;74.70;;;;;;5088577;28;20024;-76
2021/10/29 10:07:24;;;;;;;10.65;1.70;;;21.00;67.20;;;;;;5080898;28;20075;-75
2021/10/29 10:10:00;;;;;;;7.10;1.58;;;20.80;66.90;;;;;;5080827;28;20039;-75
2021/10/29 10:12:35;;;;;;;11.10;1.90;;;20.40;64.50;;;;;;5080661;28;20109;-75
2021/10/29 10:15:04;;;;;;;7.78;1.50;;;20.10;65.80;;;;;;5080707;28;20051;-75
2021/10/29 10:17:31;;;;;;;11.40;1.88;;;19.80;67.80;;;;;;5080809;28;20091;-75
2021/10/29 10:19:59;;;;;;;13.02;1.73;;;19.50;67.60;;;;;;5079299;28;20025;-75
2021/10/29 10:22:28;;;;;;;12.55;1.60;;;19.20;66.90;;;;;;5080904;28;20107;-75
2021/10/29 10:25:02;;;;;;;10.00;1.67;;;19.10;66.90;;;;;;5080355;28;20024;-75
2021/10/29 10:28:18;;;;;;;7.85;2.00;;;18.90;67.70;;;;;;5080435;28;20012;-75
2021/10/29 10:31:08;;;;;;;10.75;1.75;;;18.70;67.80;;;;;;5090088;28;20024;-75
2021/10/29 10:43:03;;;;;;;11.45;2.05;;;19.50;67.00;;;;;;5079991;28;20032;-75
2021/10/29 10:45:35;;;;;;;10.25;1.77;;;20.10;67.00;;;;;;5080282;28;20084;-75
2021/10/29 10:48:03;;;;;;;10.75;1.55;;;20.90;66.80;;;;;;5080442;28;20029;-75
2021/10/29 10:50:37;;;;;;;8.38;1.90;;;21.40;67.50;;;;;;5080098;28;20025;-75
2021/10/29 10:53:12;;;;;;;7.68;2.10;;;21.90;65.60;;;;;;5080263;28;20032;-75
2021/10/29 10:56:03;;;;;;;12.00;1.95;;;22.40;66.20;;;;;;5080124;28;20039;-75
2021/10/29 10:59:33;;;;;;;13.32;2.15;;;22.90;63.80;;;;;;5079562;28;20407;-75
2021/10/29 11:12:47;;;;;;;11.32;1.80;;;24.20;60.40;;;;;;5079906;28;20090;-75
2021/10/29 11:15:25;;;;;;;8.90;1.50;;;24.30;61.70;;;;;;5074321;28;20146;-75
2021/10/29 11:18:01;;;;;;;10.35;1.67;;;24.30;61.00;;;;;;5079804;28;20020;-75
2021/10/29 11:23:11;;;;;;;9.93;1.98;;;24.70;58.90;;;;;;5099747;28;20103;-75
2021/10/29 11:26:01;;;;;;;8.98;1.90;;;24.60;54.40;;;;;;5099974;28;20031;-75
2021/10/29 11:28:52;;;;;;;8.63;1.95;;;24.50;57.10;;;;;;5099413;28;20085;-75
2021/10/29 11:31:34;;;;;;;10.43;1.70;;;24.30;58.70;;;;;;5090154;28;20085;-75
2021/10/29 11:34:16;;;;;;;9.57;1.73;;;24.10;57.30;;;;;;5086543;28;20054;-75
2021/10/29 11:36:50;;;;;;;10.60;1.70;;;24.00;58.80;;;;;;5079691;28;20033;-75
2021/10/29 11:39:18;;;;;;;13.32;2.53;;;23.60;57.20;;;;;;5079019;28;20033;-75
2021/10/29 11:41:46;;;;;;;10.63;2.20;;;23.10;57.10;;;;;;5079477;28;20459;-75
2021/10/29 11:44:22;;;;;;;13.40;2.10;;;22.70;58.30;;;;;;5078806;28;20471;-75
2021/10/29 11:46:49;;;;;;;16.98;2.28;;;22.40;60.00;;;;;;5079250;28;20399;-75
2021/10/29 11:49:19;;;;;;;14.85;2.30;;;22.00;57.70;;;;;;5079061;28;20024;-75
2021/10/29 11:51:46;;;;;;;14.90;2.28;;;21.80;59.50;;;;;;5079270;28;20037;-75
2021/10/29 11:54:26;;;;;;;10.88;2.00;;;21.60;57.10;;;;;;5079030;28;20028;-75
2021/10/29 12:07:46;;;;;;;11.27;2.13;;;20.90;59.10;;;;;;5078938;28;20098;-75
2021/10/29 12:10:18;;;;;;;13.23;2.58;;;20.80;59.90;;;;;;5078487;28;20091;-75
2021/10/29 12:12:45;;;;;;;11.45;1.65;;;20.70;61.10;;;;;;5078541;28;20017;-75
2021/10/29 12:15:17;;;;;;;9.85;1.90;;;20.50;60.90;;;;;;5077477;28;20026;-75
2021/10/29 12:17:57;;;;;;;15.02;2.58;;;20.40;61.80;;;;;;5078477;28;20173;-75
2021/10/29 12:20:30;;;;;;;10.70;1.80;;;20.40;62.60;;;;;;5086026;28;20107;-75
2021/10/29 12:23:26;;;;;;;13.68;2.28;;;20.40;62.40;;;;;;5098594;28;20036;-76
2021/10/29 12:28:26;;;;;;;14.30;2.65;;;20.30;62.30;;;;;;5098387;28;20261;-75
2021/10/29 12:31:53;;;;;;;8.98;1.80;;;20.30;63.40;;;;;;5098533;28;20024;-75
2021/10/29 13:01:39;;;;;;;14.40;2.35;;;21.40;60.30;;;;;;5094635;28;20130;-75
2021/10/29 13:04:11;;;;;;;14.00;2.50;;;21.20;60.90;;;;;;5094456;28;20039;-76
2021/10/29 13:06:42;;;;;;;14.80;2.33;;;21.10;60.60;;;;;;5094573;28;20067;-75
2021/10/29 13:09:16;;;;;;;11.90;2.30;;;21.00;59.50;;;;;;5094758;28;20024;-76
2021/10/29 13:11:48;;;;;;;13.40;1.92;;;20.90;60.50;;;;;;5094408;28;20086;-76
2021/10/29 13:14:20;;;;;;;12.05;2.70;;;20.80;60.00;;;;;;5094269;28;20025;-76
2021/10/29 13:16:47;;;;;;;12.98;2.92;;;20.70;61.20;;;;;;5094168;28;20479;-76
2021/10/29 13:56:26;;;;;;;12.38;2.72;;;19.60;59.50;;;;;;5080005;28;20047;-76
2021/10/29 14:01:55;;;;;;;15.30;2.80;;;19.50;60.30;;;;;;5080041;28;20024;-76
2021/10/29 14:29:31;;;;;;;13.45;2.90;;;18.60;61.60;;;;;;5079341;28;20066;-76
2021/10/29 14:32:04;;;;;;;13.25;2.30;;;18.60;62.70;;;;;;5079265;28;20028;-77
2021/10/29 14:34:45;;;;;;;9.70;1.98;;;18.50;63.20;;;;;;5079103;28;20037;-76
2021/10/29 14:40:18;;;;;;;17.57;2.47;;;18.50;62.80;;;;;;5079329;28;20021;-76
2021/10/29 14:45:15;;;;;;;17.52;3.95;;;18.40;64.10;;;;;;5079147;28;20059;-77
2021/10/29 15:17:15;;;;;;;11.45;2.10;;;17.50;65.00;;;;;;5078275;28;20501;-77
2021/10/29 15:25:23;;;;;;;7.55;1.60;;;17.30;62.20;;;;;;5078370;28;20102;-76
2021/10/29 15:41:43;;;;;;;7.80;1.85;;;16.80;62.10;;;;;;5077914;28;20027;-77
2021/10/29 15:44:12;;;;;;;7.68;2.17;;;16.70;62.60;;;;;;5078139;28;20036;-77
2021/10/29 15:51:33;;;;;;;17.00;2.38;;;16.50;62.70;;;;;;5077917;28;20017;-77
2021/10/29 15:54:08;;;;;;;10.52;2.28;;;16.40;62.30;;;;;;5077610;28;20032;-77
2021/10/29 15:56:43;;;;;;;11.63;2.28;;;16.30;63.00;;;;;;5077739;28;20031;-77
2021/10/29 16:17:49;;;;;;;11.88;2.25;;;15.70;63.80;;;;;;5077783;28;20074;-77
2021/10/29 16:20:15;;;;;;;11.73;2.10;;;15.70;64.70;;;;;;5077485;28;20020;-77
2021/10/29 16:22:41;;;;;;;15.82;1.90;;;15.60;64.80;;;;;;5077547;28;20533;-77
2021/10/29 16:25:11;;;;;;;13.23;2.22;;;15.50;64.90;;;;;;5076023;28;20037;-77
2021/10/29 16:27:45;;;;;;;6.95;1.63;;;15.50;65.00;;;;;;5077138;28;20017;-77
2021/10/29 16:30:11;;;;;;;9.93;1.80;;;15.40;65.30;;;;;;5077431;28;20079;-77
2021/10/29 16:35:30;;;;;;;9.60;2.72;;;15.20;66.10;;;;;;5061023;28;20052;-77
2021/10/29 16:37:57;;;;;;;6.53;1.67;;;15.20;66.50;;;;;;5075925;28;20097;-77
2021/10/29 16:40:23;;;;;;;11.73;1.73;;;15.10;66.60;;;;;;5077463;28;20476;-77
2021/10/29 16:42:49;;;;;;;14.43;2.72;;;15.00;66.50;;;;;;5076824;28;20045;-77
2021/10/29 16:45:18;;;;;;;12.32;1.98;;;15.00;66.70;;;;;;5077400;28;20028;-77
2021/10/29 16:47:44;;;;;;;10.32;1.70;;;14.90;66.60;;;;;;5075813;28;20088;-77
2021/10/29 16:50:12;;;;;;;12.88;2.00;;;14.80;66.80;;;;;;5077374;28;20029;-78
2021/10/29 16:52:39;;;;;;;15.75;2.88;;;14.80;67.00;;;;;;5076991;28;20024;-77
2021/10/29 16:55:06;;;;;;;6.57;2.38;;;14.70;67.00;;;;;;5077104;28;20032;-77
2021/10/29 16:57:32;;;;;;;11.77;2.88;;;14.60;67.30;;;;;;5076740;28;20498;-77
2021/10/29 16:59:58;;;;;;;16.92;2.40;;;14.60;67.70;;;;;;5075912;28;20077;-77
2021/10/29 17:02:24;;;;;;;10.25;2.83;;;14.50;67.80;;;;;;5077030;28;20045;-77
2021/10/29 17:04:52;;;;;;;14.95;2.42;;;14.50;68.20;;;;;;5077236;28;20033;-77
2021/10/29 17:07:18;;;;;;;16.15;3.28;;;14.40;68.50;;;;;;5077160;28;20479;-77
2021/10/29 17:09:44;;;;;;;8.73;2.10;;;14.40;68.80;;;;;;5077286;28;20128;-77
2021/10/29 17:12:10;;;;;;;11.80;2.47;;;14.40;69.00;;;;;;5076877;28;20028;-77
2021/10/29 17:14:35;;;;;;;16.63;2.42;;;14.30;69.30;;;;;;5076914;28;20111;-77
2021/10/29 17:17:01;;;;;;;18.33;2.35;;;14.30;69.60;;;;;;5076882;28;20020;-77
2021/10/29 17:19:27;;;;;;;12.50;2.40;;;14.30;70.00;;;;;;5076929;28;20021;-77
2021/10/29 17:21:53;;;;;;;14.45;3.47;;;14.20;70.20;;;;;;5078699;28;20019;-77
2021/10/29 17:24:19;;;;;;;11.70;2.50;;;14.20;70.40;;;;;;5080529;28;20028;-77
2021/10/29 17:26:45;;;;;;;12.38;2.58;;;14.10;70.70;;;;;;5080332;28;20033;-77
2021/10/29 17:29:12;;;;;;;16.05;2.42;;;14.10;71.00;;;;;;5080585;28;20154;-77
2021/10/29 17:31:38;;;;;;;17.17;2.97;;;14.00;71.10;;;;;;5080755;28;20020;-77
2021/10/29 17:34:05;;;;;;;10.52;2.20;;;14.00;71.40;;;;;;5073800;28;20598;-77
2021/10/29 17:36:31;;;;;;;13.38;2.63;;;14.00;71.60;;;;;;5080586;28;20052;-77
2021/10/29 17:38:57;;;;;;;16.55;3.38;;;13.90;71.80;;;;;;5080418;28;20028;-77
2021/10/29 17:41:24;;;;;;;11.80;2.90;;;13.90;71.90;;;;;;5080780;28;20068;-77
2021/10/29 17:43:50;;;;;;;13.70;3.05;;;13.80;72.00;;;;;;5078553;28;20047;-77
2021/10/29 17:46:16;;;;;;;27.40;12.70;;;13.80;72.30;;;;;;5080539;28;20065;-77
2021/10/29 17:48:42;;;;;;;21.17;11.82;;;13.70;72.40;;;;;;5080553;28;20028;-77
2021/10/29 17:51:08;;;;;;;20.83;9.10;;;13.70;72.70;;;;;;5080320;28;20077;-77